Archival Weather

NSFA McMurdo Sound

NSFA McMurdo Sound, Antarctica (NZCM)

Report from: Saturday, April 1, 2023 4:55 PM UTC
Current time: Monday, July 22, 2024 10:20 AM UTC

Current weather – Weather history – Daily summaries
Weather forecast

Temperature-22.8°C (-9.0°F)
Wind chill-31.0°C (-23.8°F)
Dew point-26.7°C (-16.1°F)
Winds 6 kts (3.1 m/s, 6.9 mph) East-Northeast (60°)
Visibility6.2 mi. (10 km)
Clouds Sky clear
Altimeter29.82 in.Hg (1010 mB)
Relative humidity70 %
Density altitude-4,765 ft. (-1,452 m)
Sea-level pressure101.1 kPa (1011 mB, 29.84 in.Hg)
Remarks Fully automated report
Automated weather observing station with precipitation discriminator
Flight conditions Visual Meteorological Conditions
Raw dataNZCM 011655Z AUTO 06006KT 9999 CLR M23/M27 A2982 RMK AO2 SLP106 T12281267
An error has occurred. This application may no longer respond until reloaded. Reload 🗙